createdAt,value
2023-02-14T00:00:44.335Z,101.31
2023-02-14T00:01:53.509Z,102.53
2023-02-14T00:03:02.693Z,103.27
2023-02-14T00:04:11.898Z,103.02
2023-02-14T00:05:21.092Z,103.51
2023-02-14T00:06:29.220Z,102.53
2023-02-14T00:07:38.432Z,104.49
2023-02-14T00:08:47.572Z,101.07
2023-02-14T00:09:56.748Z,102.53
2023-02-14T00:11:05.918Z,103.51
2023-02-14T00:12:15.088Z,101.8
2023-02-14T00:13:24.280Z,102.29
2023-02-14T00:14:32.465Z,101.31
2023-02-14T00:15:41.629Z,101.8
2023-02-14T00:16:49.827Z,104.24
2023-02-14T00:17:58.993Z,104
2023-02-14T00:19:08.188Z,100.58
2023-02-14T00:20:17.426Z,101.31
2023-02-14T00:21:26.518Z,99.85
2023-02-14T00:22:35.685Z,102.53
2023-02-14T00:23:44.852Z,101.8
2023-02-14T00:24:54.043Z,102.29
2023-02-14T00:26:03.230Z,99.85
2023-02-14T00:27:12.384Z,99.85
2023-02-14T00:28:21.587Z,100.34
2023-02-14T00:29:30.721Z,101.56
2023-02-14T00:30:39.930Z,100.34
2023-02-14T00:31:48.124Z,100.09
2023-02-14T00:32:57.259Z,101.8
2023-02-14T00:34:06.446Z,101.8
2023-02-14T00:35:15.613Z,102.05
2023-02-14T00:36:24.781Z,101.8
2023-02-14T00:37:33.945Z,102.05
2023-02-14T00:38:42.147Z,99.85
2023-02-14T00:39:50.341Z,103.02
2023-02-14T00:40:59.518Z,102.05
2023-02-14T00:42:08.685Z,103.27
2023-02-14T00:43:17.853Z,101.31
2023-02-14T00:44:27.034Z,101.8
2023-02-14T00:45:36.203Z,100.58
2023-02-14T00:46:45.372Z,100.09
2023-02-14T00:47:54.544Z,100.09
2023-02-14T00:49:03.728Z,101.31
2023-02-14T00:50:12.894Z,101.56
2023-02-14T00:51:22.067Z,99.36
2023-02-14T00:52:31.288Z,101.07
2023-02-14T00:53:40.411Z,101.07
2023-02-14T00:54:48.606Z,101.56
2023-02-14T00:55:57.769Z,102.53
2023-02-14T00:57:06.947Z,102.53
2023-02-14T00:58:16.117Z,100.09
2023-02-14T00:59:25.289Z,101.31
2023-02-14T01:00:34.472Z,102.53
2023-02-14T01:01:43.649Z,102.53
2023-02-14T01:02:51.848Z,99.36
2023-02-14T01:04:00.023Z,101.56
2023-02-14T01:05:08.215Z,99.85
2023-02-14T01:06:16.420Z,100.58
2023-02-14T01:07:25.563Z,100.83
2023-02-14T01:08:34.758Z,101.56
2023-02-14T01:09:43.930Z,102.78
2023-02-14T01:10:53.142Z,102.05
2023-02-14T01:12:02.281Z,99.36
2023-02-14T01:13:11.452Z,101.56
2023-02-14T01:14:20.618Z,100.58
2023-02-14T01:15:29.791Z,100.09
2023-02-14T01:16:38.972Z,101.07
2023-02-14T01:17:48.141Z,99.85
2023-02-14T01:18:57.310Z,98.14
2023-02-14T01:20:06.494Z,102.53
2023-02-14T01:21:14.678Z,100.09
2023-02-14T01:22:23.846Z,101.31
2023-02-14T01:23:33.105Z,102.78
2023-02-14T01:24:42.204Z,99.85
2023-02-14T01:25:51.371Z,101.31
2023-02-14T01:27:00.533Z,101.07
2023-02-14T01:28:09.720Z,102.05
2023-02-14T01:29:17.924Z,101.07
2023-02-14T01:30:26.096Z,99.85
2023-02-14T01:31:35.284Z,100.58
2023-02-14T01:32:43.471Z,101.8
2023-02-14T01:33:51.652Z,103.75
2023-02-14T01:35:00.825Z,102.78
2023-02-14T01:36:10.015Z,100.83
2023-02-14T01:37:19.182Z,101.07
2023-02-14T01:38:28.348Z,103.27
2023-02-14T01:39:37.518Z,101.8
2023-02-14T01:40:46.706Z,103.51
2023-02-14T01:41:55.873Z,102.05
2023-02-14T01:43:05.053Z,101.31
2023-02-14T01:44:14.213Z,99.36
2023-02-14T01:45:23.386Z,100.34
2023-02-14T01:46:32.573Z,101.31
2023-02-14T01:47:41.746Z,101.8
2023-02-14T01:48:49.935Z,101.07
2023-02-14T01:49:59.102Z,101.07
2023-02-14T01:51:08.269Z,98.87
2023-02-14T01:52:17.451Z,101.56
2023-02-14T01:53:26.617Z,100.09
2023-02-14T01:54:35.792Z,101.8
2023-02-14T01:55:44.967Z,101.07
2023-02-14T01:56:53.162Z,99.85
2023-02-14T01:58:01.344Z,102.05
2023-02-14T01:59:09.543Z,100.09
2023-02-14T02:00:17.732Z,98.38
2023-02-14T02:01:26.907Z,97.41
2023-02-14T02:02:36.126Z,100.09
2023-02-14T02:03:45.246Z,97.65
2023-02-14T02:04:54.482Z,96.67
2023-02-14T02:06:03.592Z,99.6
2023-02-14T02:07:12.779Z,96.19
2023-02-14T02:08:21.946Z,95.7
2023-02-14T02:09:31.109Z,94.97
2023-02-14T02:10:40.297Z,94.72
2023-02-14T02:11:49.484Z,91.79
2023-02-14T02:12:58.657Z,91.55
2023-02-14T02:14:07.811Z,93.01
2023-02-14T02:15:15.997Z,92.04
2023-02-14T02:16:25.172Z,92.28
2023-02-14T02:17:34.337Z,90.82
2023-02-14T02:18:43.518Z,89.35
2023-02-14T02:19:52.684Z,89.84
2023-02-14T02:21:01.857Z,88.62
2023-02-14T02:22:11.030Z,89.35
2023-02-14T02:23:19.224Z,89.35
2023-02-14T02:24:27.413Z,88.37
2023-02-14T02:25:35.633Z,87.4
2023-02-14T02:26:43.796Z,88.62
2023-02-14T02:27:52.977Z,90.08
2023-02-14T02:29:02.159Z,90.08
2023-02-14T02:30:11.324Z,90.57
2023-02-14T02:31:20.514Z,87.4
2023-02-14T02:32:29.669Z,87.64
2023-02-14T02:33:38.841Z,85.93
2023-02-14T02:34:48.029Z,93.26
2023-02-14T02:35:57.196Z,88.13
2023-02-14T02:37:06.360Z,88.37
2023-02-14T02:38:15.570Z,87.15
2023-02-14T02:39:24.699Z,88.13
2023-02-14T02:40:33.885Z,88.13
2023-02-14T02:41:42.099Z,88.86
2023-02-14T02:42:51.241Z,89.35
2023-02-14T02:44:00.417Z,89.35
2023-02-14T02:45:09.583Z,88.86
2023-02-14T02:46:18.761Z,89.11
2023-02-14T02:47:27.934Z,89.59
2023-02-14T02:48:37.103Z,90.57
2023-02-14T02:49:45.362Z,89.59
2023-02-14T02:50:53.498Z,90.82
2023-02-14T02:52:01.682Z,90.82
2023-02-14T02:53:09.907Z,91.06
2023-02-14T02:54:19.100Z,92.52
2023-02-14T02:55:28.265Z,94.23
2023-02-14T02:56:37.428Z,93.5
2023-02-14T02:57:46.603Z,96.67
2023-02-14T02:58:55.786Z,97.41
2023-02-14T03:00:04.950Z,98.87
2023-02-14T03:01:14.134Z,97.9
2023-02-14T03:02:22.324Z,95.94
2023-02-14T03:03:31.492Z,100.34
2023-02-14T03:04:40.658Z,98.63
2023-02-14T03:05:49.850Z,98.38
2023-02-14T03:06:59.018Z,97.41
2023-02-14T03:08:08.185Z,100.58
2023-02-14T03:09:17.346Z,98.38
2023-02-14T03:10:26.536Z,98.63
2023-02-14T03:11:35.703Z,99.36
2023-02-14T03:12:44.885Z,97.41
2023-02-14T03:13:54.053Z,97.41
2023-02-14T03:15:03.220Z,99.36
2023-02-14T03:16:11.416Z,95.45
2023-02-14T03:17:19.617Z,97.41
2023-02-14T03:18:27.804Z,95.94
2023-02-14T03:19:35.987Z,96.43
2023-02-14T03:20:45.178Z,95.45
2023-02-14T03:21:54.325Z,94.97
2023-02-14T03:23:03.532Z,97.41
2023-02-14T03:24:12.679Z,97.16
2023-02-14T03:25:21.859Z,99.85
2023-02-14T03:26:31.037Z,98.14
2023-02-14T03:27:40.201Z,97.9
2023-02-14T03:28:49.375Z,97.41
2023-02-14T03:29:58.557Z,97.9
2023-02-14T03:31:07.725Z,98.87
2023-02-14T03:32:16.911Z,98.38
2023-02-14T03:33:26.072Z,98.38
2023-02-14T03:34:34.257Z,98.87
2023-02-14T03:35:43.454Z,97.9
2023-02-14T03:36:52.610Z,101.07
2023-02-14T03:38:01.769Z,98.38
2023-02-14T03:39:10.945Z,99.6
2023-02-14T03:40:20.128Z,101.8
2023-02-14T03:41:29.291Z,97.41
2023-02-14T03:42:37.497Z,99.36
2023-02-14T03:43:45.673Z,99.85
2023-02-14T03:44:53.906Z,97.16
2023-02-14T03:46:02.071Z,97.65
2023-02-14T03:47:11.234Z,99.6
2023-02-14T03:48:20.414Z,99.6
2023-02-14T03:49:29.583Z,99.36
2023-02-14T03:50:38.765Z,98.63
2023-02-14T03:51:47.938Z,97.16
2023-02-14T03:52:57.120Z,97.41
2023-02-14T03:54:06.276Z,97.16
2023-02-14T03:55:15.448Z,94.72
2023-02-14T03:56:24.625Z,95.21
2023-02-14T03:57:33.786Z,96.67
2023-02-14T03:58:42.982Z,92.28
2023-02-14T03:59:52.143Z,97.16
2023-02-14T04:01:00.337Z,93.01
2023-02-14T04:02:09.501Z,93.75
2023-02-14T04:03:18.702Z,92.04
2023-02-14T04:04:27.846Z,91.55
2023-02-14T04:05:37.032Z,89.84
2023-02-14T04:06:46.203Z,90.82
2023-02-14T04:07:55.366Z,90.08
2023-02-14T04:09:03.566Z,88.62
2023-02-14T04:10:11.754Z,90.08
2023-02-14T04:11:20.929Z,89.84
2023-02-14T04:12:30.094Z,87.89
2023-02-14T04:13:38.290Z,88.62
2023-02-14T04:14:46.483Z,88.86
2023-02-14T04:15:55.660Z,90.08
2023-02-14T04:17:04.845Z,87.64
2023-02-14T04:18:13.999Z,85.2
2023-02-14T04:19:23.180Z,86.18
2023-02-14T04:20:32.365Z,85.69
2023-02-14T04:21:41.524Z,86.66
2023-02-14T04:22:50.698Z,86.66
2023-02-14T04:23:59.868Z,85.44
2023-02-14T04:25:09.039Z,85.93
2023-02-14T04:26:18.223Z,86.91
2023-02-14T04:27:27.399Z,84.96
2023-02-14T04:28:36.562Z,84.71
2023-02-14T04:29:44.751Z,85.69
2023-02-14T04:30:53.915Z,85.44
2023-02-14T04:32:03.123Z,84.47
2023-02-14T04:33:12.283Z,84.71
2023-02-14T04:34:21.470Z,84.71
2023-02-14T04:35:30.637Z,84.96
2023-02-14T04:36:39.789Z,85.44
2023-02-14T04:37:48.001Z,85.2
2023-02-14T04:38:56.185Z,86.42
2023-02-14T04:40:05.354Z,86.18
2023-02-14T04:41:14.529Z,87.15
2023-02-14T04:42:23.698Z,89.59
2023-02-14T04:43:32.966Z,90.33
2023-02-14T04:44:41.067Z,89.84
2023-02-14T04:45:49.262Z,91.55
2023-02-14T04:46:58.429Z,92.77
2023-02-14T04:48:07.694Z,95.21
2023-02-14T04:49:16.772Z,96.43
2023-02-14T04:50:25.947Z,94.48
2023-02-14T04:51:35.115Z,96.43
2023-02-14T04:52:44.307Z,95.21
2023-02-14T04:53:53.461Z,98.14
2023-02-14T04:55:02.632Z,97.16
2023-02-14T04:56:11.805Z,97.9
2023-02-14T04:57:20.983Z,96.67
2023-02-14T04:58:30.159Z,98.63
2023-02-14T04:59:39.338Z,98.63
2023-02-14T05:00:47.527Z,98.14
2023-02-14T05:01:56.691Z,98.14
2023-02-14T05:03:05.865Z,100.58
2023-02-14T05:04:15.054Z,98.63
2023-02-14T05:05:24.213Z,98.63
2023-02-14T05:07:42.565Z,98.63
2023-02-14T05:08:51.730Z,99.85
2023-02-14T05:09:59.929Z,100.09
2023-02-14T05:11:08.126Z,99.36
2023-02-14T05:12:17.305Z,101.56
2023-02-14T05:13:26.468Z,99.6
2023-02-14T05:14:35.645Z,97.9
2023-02-14T05:15:43.845Z,98.38
2023-02-14T05:16:52.027Z,96.67
2023-02-14T05:18:01.189Z,99.6
2023-02-14T05:19:10.388Z,98.87
2023-02-14T05:20:19.543Z,97.16
2023-02-14T05:21:28.714Z,96.92
2023-02-14T05:22:37.880Z,96.19
2023-02-14T05:23:47.058Z,97.9
2023-02-14T05:24:56.228Z,96.67
2023-02-14T05:26:05.405Z,96.92
2023-02-14T05:27:14.619Z,98.87
2023-02-14T05:28:23.760Z,95.7
2023-02-14T05:29:32.920Z,97.41
2023-02-14T05:30:42.128Z,97.16
2023-02-14T05:31:50.287Z,97.9
2023-02-14T05:32:59.462Z,99.36
2023-02-14T05:34:08.632Z,97.9
2023-02-14T05:35:17.802Z,98.87
2023-02-14T05:36:26.980Z,100.09
2023-02-14T05:37:36.156Z,101.31
2023-02-14T05:38:45.325Z,102.53
2023-02-14T05:39:53.528Z,100.58
2023-02-14T05:41:01.731Z,101.8
2023-02-14T05:42:10.882Z,99.6
2023-02-14T05:43:19.079Z,99.85
2023-02-14T05:44:27.270Z,100.83
2023-02-14T05:45:36.437Z,101.56
2023-02-14T05:46:45.615Z,101.31
2023-02-14T05:47:54.797Z,102.05
2023-02-14T05:49:03.968Z,101.8
2023-02-14T05:50:13.147Z,99.85
2023-02-14T05:51:22.310Z,100.09
2023-02-14T05:52:31.489Z,99.6
2023-02-14T05:53:40.673Z,107.91
2023-02-14T05:54:49.837Z,100.34
2023-02-14T05:55:58.997Z,99.85
2023-02-14T05:57:08.184Z,100.34
2023-02-14T05:58:17.364Z,103.02
2023-02-14T05:59:25.541Z,100.09
2023-02-14T06:00:34.716Z,104.24
2023-02-14T06:01:43.890Z,97.65
2023-02-14T06:02:53.069Z,99.36
2023-02-14T06:04:02.228Z,98.63
2023-02-14T06:05:11.416Z,98.14
2023-02-14T06:06:20.585Z,96.92
2023-02-14T06:07:28.779Z,93.5
2023-02-14T06:08:36.960Z,93.5
2023-02-14T06:09:46.138Z,93.75
2023-02-14T06:10:55.323Z,94.72
2023-02-14T06:12:03.508Z,91.06
2023-02-14T06:13:11.765Z,93.5
2023-02-14T06:14:20.872Z,92.77
2023-02-14T06:15:30.067Z,91.06
2023-02-14T06:16:39.232Z,90.08
2023-02-14T06:17:48.435Z,89.84
2023-02-14T06:18:57.565Z,90.82
2023-02-14T06:20:06.745Z,91.06
2023-02-14T06:21:15.923Z,88.62
2023-02-14T06:22:25.096Z,87.64
2023-02-14T06:23:34.263Z,93.75
2023-02-14T06:24:43.435Z,88.62
2023-02-14T06:25:52.606Z,109.61
2023-02-14T06:27:01.782Z,88.62
2023-02-14T06:28:09.974Z,90.33
2023-02-14T06:29:19.146Z,111.08
2023-02-14T06:30:28.324Z,107.17
2023-02-14T06:31:37.492Z,105.46
2023-02-14T06:32:46.667Z,105.95
2023-02-14T06:33:55.863Z,101.8
2023-02-14T06:35:05.006Z,93.75
2023-02-14T06:36:14.181Z,95.94
2023-02-14T06:37:23.380Z,110.35
2023-02-14T06:38:31.551Z,98.38
2023-02-14T06:39:39.746Z,97.41
2023-02-14T06:40:48.910Z,100.58
2023-02-14T06:41:58.092Z,99.36
2023-02-14T06:43:06.285Z,101.56
2023-02-14T06:44:14.519Z,111.32
2023-02-14T06:45:23.649Z,111.57
2023-02-14T06:46:32.823Z,105.71
2023-02-14T06:47:42.003Z,105.95
2023-02-14T06:48:51.168Z,103.75
2023-02-14T06:50:00.340Z,104.24
2023-02-14T06:51:09.511Z,104.49
2023-02-14T06:52:18.707Z,104
2023-02-14T06:53:26.891Z,101.8
2023-02-14T06:54:36.080Z,102.53
2023-02-14T06:55:45.240Z,109.86
2023-02-14T06:56:54.414Z,106.2
2023-02-14T06:58:03.587Z,106.44
2023-02-14T06:59:12.751Z,108.15
2023-02-14T07:00:21.917Z,105.71
2023-02-14T07:01:31.168Z,106.68
2023-02-14T07:02:40.278Z,107.42
2023-02-14T07:03:49.438Z,109.37
2023-02-14T07:04:58.624Z,107.66
2023-02-14T07:06:07.795Z,108.88
2023-02-14T07:07:15.989Z,106.44
2023-02-14T07:08:24.173Z,107.66
2023-02-14T07:09:33.374Z,110.35
2023-02-14T07:10:42.534Z,110.59
2023-02-14T07:11:51.716Z,110.83
2023-02-14T07:13:00.870Z,111.81
2023-02-14T07:14:10.062Z,111.08
2023-02-14T07:15:19.227Z,116.69
2023-02-14T07:16:28.400Z,111.08
2023-02-14T07:17:37.567Z,111.08
2023-02-14T07:18:46.738Z,113.52
2023-02-14T07:19:55.918Z,111.32
2023-02-14T07:21:05.082Z,112.06
2023-02-14T07:22:14.261Z,110.59
2023-02-14T07:23:22.439Z,111.32
2023-02-14T07:24:31.709Z,109.61
2023-02-14T07:25:40.782Z,109.13
2023-02-14T07:26:49.964Z,107.17
2023-02-14T07:27:59.122Z,106.93
2023-02-14T07:29:08.304Z,106.44
2023-02-14T07:30:17.485Z,107.42
2023-02-14T07:31:25.688Z,107.42
2023-02-14T07:32:33.933Z,109.61
2023-02-14T07:33:42.069Z,108.15
2023-02-14T07:34:50.254Z,108.39
2023-02-14T07:35:59.424Z,106.2
2023-02-14T07:37:08.604Z,110.59
2023-02-14T07:38:17.822Z,109.86
2023-02-14T07:39:27.036Z,111.08
2023-02-14T07:40:36.118Z,107.91
2023-02-14T07:41:45.357Z,110.1
2023-02-14T07:42:54.460Z,111.32
2023-02-14T07:44:03.686Z,115.23
2023-02-14T07:45:12.809Z,109.37
2023-02-14T07:46:22.044Z,109.13
2023-02-14T07:47:31.149Z,108.64
2023-02-14T07:48:40.406Z,108.88
2023-02-14T07:49:48.669Z,107.17
2023-02-14T07:50:57.703Z,107.17
2023-02-14T07:52:07.050Z,108.88
2023-02-14T07:53:16.215Z,108.88
2023-02-14T07:54:25.362Z,106.44
2023-02-14T07:55:34.527Z,106.2
2023-02-14T07:56:43.719Z,109.13
2023-02-14T07:57:51.914Z,108.15
2023-02-14T07:59:00.070Z,106.68
2023-02-14T08:00:08.139Z,107.17
2023-02-14T08:01:16.581Z,107.17
2023-02-14T08:02:25.676Z,107.42
2023-02-14T08:03:34.841Z,108.39
2023-02-14T08:04:43.865Z,107.17
2023-02-14T08:05:53.163Z,106.68
2023-02-14T08:07:02.195Z,105.22
2023-02-14T08:08:11.385Z,108.64
2023-02-14T08:09:20.546Z,107.91
2023-02-14T08:10:29.698Z,107.66
2023-02-14T08:11:38.953Z,108.88
2023-02-14T08:12:48.044Z,108.39
2023-02-14T08:13:57.210Z,108.15
2023-02-14T08:15:06.388Z,109.13
2023-02-14T08:16:14.661Z,107.42
2023-02-14T08:17:23.798Z,107.91
2023-02-14T08:18:33.003Z,109.13
2023-02-14T08:19:42.096Z,126.95
2023-02-14T08:20:51.317Z,108.15
2023-02-14T08:22:00.546Z,109.13
2023-02-14T08:23:09.664Z,109.13
2023-02-14T08:24:17.810Z,109.86
2023-02-14T08:25:25.996Z,107.91
2023-02-14T08:26:34.254Z,108.39
2023-02-14T08:27:43.460Z,108.64
2023-02-14T08:28:51.548Z,108.64
2023-02-14T08:30:00.826Z,108.39
2023-02-14T08:31:09.956Z,107.91
2023-02-14T08:32:19.101Z,110.59
2023-02-14T08:33:28.307Z,109.13
2023-02-14T08:34:37.404Z,111.57
2023-02-14T08:35:46.578Z,107.66
2023-02-14T08:36:55.803Z,109.13
2023-02-14T08:38:04.929Z,109.37
2023-02-14T08:39:14.098Z,107.42
2023-02-14T08:40:23.291Z,116.45
2023-02-14T08:41:32.468Z,108.15
2023-02-14T08:42:41.607Z,110.35
2023-02-14T08:43:49.799Z,108.64
2023-02-14T08:44:58.986Z,107.91
2023-02-14T08:46:08.156Z,109.13
2023-02-14T08:47:17.364Z,110.59
2023-02-14T08:48:26.498Z,108.64
2023-02-14T08:49:35.685Z,106.93
2023-02-14T08:50:43.879Z,105.95
2023-02-14T08:51:52.052Z,106.44
2023-02-14T08:53:00.278Z,109.13
2023-02-14T08:54:08.497Z,106.2
2023-02-14T08:55:17.606Z,109.13
2023-02-14T08:56:26.783Z,106.68
2023-02-14T08:57:35.955Z,109.61
2023-02-14T08:58:45.124Z,107.17
2023-02-14T08:59:54.296Z,107.91
2023-02-14T09:01:03.461Z,108.39
2023-02-14T09:02:12.645Z,108.88
2023-02-14T09:03:21.809Z,108.39
2023-02-14T09:04:31.173Z,107.42
2023-02-14T09:05:40.325Z,109.86
2023-02-14T09:06:49.336Z,108.15
2023-02-14T09:07:58.735Z,108.88
2023-02-14T09:09:06.849Z,108.39
2023-02-14T09:10:16.026Z,109.13
2023-02-14T09:11:25.023Z,109.13
2023-02-14T09:12:34.209Z,107.91
2023-02-14T09:13:43.376Z,107.66
2023-02-14T09:14:52.557Z,108.15
2023-02-14T09:16:01.721Z,107.17
2023-02-14T09:17:09.922Z,106.44
2023-02-14T09:18:18.094Z,107.91
2023-02-14T09:19:27.278Z,109.37
2023-02-14T09:20:36.448Z,108.39
2023-02-14T09:21:45.617Z,106.93
2023-02-14T09:22:53.814Z,107.17
2023-02-14T09:24:02.984Z,108.88
2023-02-14T09:25:11.170Z,108.39
2023-02-14T09:26:20.350Z,107.42
2023-02-14T09:27:29.524Z,107.17
2023-02-14T09:28:38.694Z,109.13
2023-02-14T09:29:47.870Z,109.13
2023-02-14T09:30:57.041Z,108.15
2023-02-14T09:32:06.284Z,108.39
2023-02-14T09:33:15.379Z,109.61
2023-02-14T09:34:24.544Z,109.13
2023-02-14T09:35:33.719Z,109.86
2023-02-14T09:36:42.889Z,109.61
2023-02-14T09:37:52.064Z,108.88
2023-02-14T09:39:01.240Z,108.88
2023-02-14T09:40:09.438Z,106.93
2023-02-14T09:41:18.597Z,107.66
2023-02-14T09:42:27.783Z,107.91
2023-02-14T09:43:36.948Z,107.91
2023-02-14T09:44:46.119Z,109.13
2023-02-14T09:45:55.289Z,109.37
2023-02-14T09:47:03.482Z,108.88
2023-02-14T09:48:11.678Z,108.88
2023-02-14T09:49:20.857Z,109.37
2023-02-14T09:50:30.098Z,108.88
2023-02-14T09:51:39.261Z,110.59
2023-02-14T09:52:48.465Z,107.91
2023-02-14T09:53:57.670Z,109.13
2023-02-14T09:55:06.805Z,108.15
2023-02-14T09:56:15.888Z,109.61
2023-02-14T09:57:25.238Z,108.88
2023-02-14T09:58:34.220Z,108.15
2023-02-14T09:59:43.390Z,108.39
2023-02-14T10:00:52.571Z,104.49
2023-02-14T10:02:01.765Z,105.71
2023-02-14T10:03:09.937Z,112.54
2023-02-14T10:04:19.095Z,105.22
2023-02-14T10:05:28.280Z,112.54
2023-02-14T10:06:37.452Z,105.22
2023-02-14T10:07:46.615Z,106.68
2023-02-14T10:08:55.793Z,106.68
2023-02-14T10:10:04.970Z,108.39
2023-02-14T10:11:13.156Z,111.08
2023-02-14T10:12:21.359Z,106.44
2023-02-14T10:13:30.520Z,106.68
2023-02-14T10:14:39.696Z,106.2
2023-02-14T10:15:48.865Z,107.17
2023-02-14T10:16:58.043Z,107.42
2023-02-14T10:18:07.202Z,109.13
2023-02-14T10:19:16.380Z,106.68
2023-02-14T10:20:25.559Z,104.98
2023-02-14T10:21:34.725Z,106.44
2023-02-14T10:22:43.891Z,105.71
2023-02-14T10:23:53.074Z,110.35
2023-02-14T10:25:02.232Z,108.15
2023-02-14T10:26:11.419Z,104.98
2023-02-14T10:33:05.468Z,105.95
2023-02-14T10:34:14.640Z,108.15
2023-02-14T10:36:31.028Z,108.39
2023-02-14T10:38:47.399Z,107.66
2023-02-14T10:39:56.575Z,109.13
2023-02-14T10:41:04.773Z,111.08
2023-02-14T10:44:29.400Z,109.86
2023-02-14T10:45:38.521Z,108.64
2023-02-14T10:46:47.681Z,108.88
2023-02-14T10:47:56.865Z,110.1
2023-02-14T10:49:06.024Z,109.61
2023-02-14T10:50:15.357Z,108.88
2023-02-14T10:51:24.367Z,109.13
2023-02-14T10:52:33.548Z,108.88
2023-02-14T10:53:42.719Z,108.15
2023-02-14T10:54:51.888Z,106.44
2023-02-14T10:56:01.058Z,105.71
2023-02-14T10:57:10.270Z,108.15
2023-02-14T10:58:19.413Z,109.37
2023-02-14T10:59:27.612Z,109.86
2023-02-14T11:00:36.762Z,106.44
2023-02-14T11:01:45.946Z,108.64
2023-02-14T11:02:55.123Z,108.64
2023-02-14T11:04:04.280Z,107.91
2023-02-14T11:05:13.456Z,108.39
2023-02-14T11:06:22.671Z,108.88
2023-02-14T11:07:30.947Z,109.86
2023-02-14T11:08:39.167Z,107.17
2023-02-14T11:09:47.374Z,109.13
2023-02-14T11:10:55.418Z,107.17
2023-02-14T11:12:04.563Z,107.17
2023-02-14T11:13:13.879Z,108.64
2023-02-14T11:14:23.049Z,105.71
2023-02-14T11:15:32.232Z,106.68
2023-02-14T11:16:41.367Z,106.2
2023-02-14T11:17:50.617Z,105.22
2023-02-14T11:18:59.723Z,105.22
2023-02-14T11:20:08.866Z,104.24
2023-02-14T11:21:17.932Z,107.17
2023-02-14T11:22:27.217Z,106.44
2023-02-14T11:23:36.302Z,105.22
2023-02-14T11:24:45.570Z,104.73
2023-02-14T11:25:53.783Z,105.46
2023-02-14T11:27:03.017Z,106.44
2023-02-14T11:28:12.034Z,102.78
2023-02-14T11:29:21.183Z,104.24
2023-02-14T11:30:30.441Z,102.78
2023-02-14T11:31:39.726Z,98.87
2023-02-14T11:32:48.884Z,96.43
2023-02-14T11:33:56.914Z,97.9
2023-02-14T11:35:05.142Z,95.21
2023-02-14T11:36:14.252Z,95.21
2023-02-14T11:37:23.472Z,90.57
2023-02-14T11:38:32.734Z,91.79
2023-02-14T11:39:41.778Z,90.08
2023-02-14T11:40:50.959Z,89.35
2023-02-14T11:42:00.143Z,90.08
2023-02-14T11:43:09.280Z,90.57
2023-02-14T11:44:18.474Z,90.57
2023-02-14T11:45:27.630Z,92.04
2023-02-14T11:46:36.832Z,92.77
2023-02-14T11:47:46.083Z,95.7
2023-02-14T11:48:55.318Z,97.9
2023-02-14T11:51:12.521Z,101.8
2023-02-14T11:52:21.691Z,101.07
2023-02-14T11:53:30.880Z,103.51
2023-02-14T11:54:40.082Z,103.75
2023-02-14T11:55:49.237Z,104.98
2023-02-14T11:56:58.429Z,106.2
2023-02-14T11:58:07.545Z,105.46
2023-02-14T11:59:15.840Z,105.71
2023-02-14T12:00:24.102Z,106.44
2023-02-14T12:01:32.287Z,104.24
2023-02-14T12:02:41.409Z,107.66
2023-02-14T12:03:49.492Z,104.98
2023-02-14T12:04:57.667Z,105.46
2023-02-14T12:06:06.837Z,104.24
2023-02-14T12:07:16.021Z,103.51
2023-02-14T12:08:25.188Z,103.02
2023-02-14T12:09:34.411Z,104.98
2023-02-14T12:10:43.764Z,104.49
2023-02-14T12:11:52.768Z,104
2023-02-14T12:13:01.981Z,102.53
2023-02-14T12:14:11.064Z,107.17
2023-02-14T12:15:20.229Z,103.02
2023-02-14T12:16:29.521Z,104.49
2023-02-14T12:17:38.607Z,103.51
2023-02-14T12:18:47.738Z,104.49
2023-02-14T12:19:55.925Z,106.2
2023-02-14T12:21:05.100Z,104.98
2023-02-14T12:22:14.301Z,104.49
2023-02-14T12:23:23.460Z,104.73
2023-02-14T12:24:32.691Z,104.24
2023-02-14T12:25:41.818Z,108.15
2023-02-14T12:26:50.961Z,103.51
2023-02-14T12:27:59.189Z,105.71
2023-02-14T12:29:07.345Z,105.71
2023-02-14T12:30:15.610Z,105.22
2023-02-14T12:31:23.886Z,105.22
2023-02-14T12:32:32.886Z,105.22
2023-02-14T12:33:42.133Z,107.17
2023-02-14T12:34:51.241Z,106.44
2023-02-14T12:36:00.438Z,105.46
2023-02-14T12:37:09.610Z,103.75
2023-02-14T12:38:18.767Z,105.22
2023-02-14T12:39:27.940Z,103.27
2023-02-14T12:40:37.099Z,103.02
2023-02-14T12:41:46.326Z,104.24
2023-02-14T12:42:55.428Z,105.22
2023-02-14T12:44:04.613Z,103.02
2023-02-14T12:45:13.789Z,104.73
2023-02-14T12:46:21.967Z,105.46
2023-02-14T12:47:31.155Z,104.49
2023-02-14T12:48:40.324Z,104.98
2023-02-14T12:49:49.484Z,105.22
2023-02-14T12:50:58.672Z,107.42
2023-02-14T12:52:07.844Z,108.15
2023-02-14T12:53:17.031Z,106.44
2023-02-14T12:54:25.260Z,106.2
2023-02-14T12:55:33.396Z,106.68
2023-02-14T12:56:41.604Z,105.95
2023-02-14T12:57:49.771Z,104
2023-02-14T12:58:58.985Z,102.53
2023-02-14T13:00:08.158Z,104.24
2023-02-14T13:01:17.376Z,104.49
2023-02-14T13:02:26.527Z,103.51
2023-02-14T13:03:35.635Z,104
2023-02-14T13:04:44.851Z,105.22
2023-02-14T13:05:54.016Z,105.22
2023-02-14T13:07:03.154Z,104.24
2023-02-14T13:08:12.319Z,106.44
2023-02-14T13:09:21.508Z,104.73
2023-02-14T13:10:30.660Z,104.24
2023-02-14T13:11:39.835Z,105.46
2023-02-14T13:12:48.017Z,106.44
2023-02-14T13:13:57.305Z,107.17
2023-02-14T13:15:06.371Z,106.2
2023-02-14T13:16:15.546Z,105.46
2023-02-14T13:17:24.706Z,107.91
2023-02-14T13:18:33.881Z,106.44
2023-02-14T13:19:43.066Z,108.64
2023-02-14T13:20:51.273Z,105.71
2023-02-14T13:21:59.448Z,106.44
2023-02-14T13:24:16.844Z,105.95
2023-02-14T13:25:25.020Z,104.98
2023-02-14T13:27:42.346Z,104.49
2023-02-14T13:31:09.879Z,104
2023-02-14T13:32:19.047Z,112.06
2023-02-14T13:33:28.222Z,110.1
2023-02-14T13:34:37.467Z,105.95
2023-02-14T13:35:46.599Z,104.98
2023-02-14T13:36:55.728Z,106.2
2023-02-14T13:38:04.910Z,104.73
2023-02-14T13:39:14.132Z,105.46
2023-02-14T13:40:23.247Z,105.71
2023-02-14T13:41:31.497Z,104.98
2023-02-14T13:42:39.630Z,103.02
2023-02-14T13:43:48.803Z,103.51
2023-02-14T13:44:57.968Z,104.73
2023-02-14T13:46:07.263Z,106.93
2023-02-14T13:47:16.322Z,103.27
2023-02-14T13:48:25.491Z,105.46
2023-02-14T13:49:34.672Z,105.71
2023-02-14T13:50:43.834Z,106.93
2023-02-14T13:51:53.028Z,105.71
2023-02-14T13:53:02.181Z,105.22
2023-02-14T13:54:10.375Z,106.2
2023-02-14T13:55:18.568Z,108.39
2023-02-14T13:56:27.792Z,107.17
2023-02-14T13:57:36.948Z,108.88
2023-02-14T13:58:46.189Z,108.88
2023-02-14T13:59:55.287Z,109.13
2023-02-14T14:01:04.449Z,111.08
2023-02-14T14:02:13.648Z,107.42
2023-02-14T14:03:22.801Z,107.42
2023-02-14T14:04:31.981Z,106.68
2023-02-14T14:05:41.146Z,105.22
2023-02-14T14:06:50.344Z,105.71
2023-02-14T14:07:59.492Z,106.2
2023-02-14T14:09:08.659Z,106.2
2023-02-14T14:10:16.846Z,104
2023-02-14T14:11:26.036Z,104.24
2023-02-14T14:12:35.201Z,104.73
2023-02-14T14:13:44.374Z,104.49
2023-02-14T14:14:53.528Z,103.02
2023-02-14T14:16:02.714Z,105.46
2023-02-14T14:17:11.890Z,104.73
2023-02-14T14:18:20.081Z,103.27
2023-02-14T14:19:28.266Z,104.98
2023-02-14T14:20:36.446Z,105.71
2023-02-14T14:21:44.655Z,104.98
2023-02-14T14:22:53.817Z,104.73
2023-02-14T14:24:02.995Z,106.44
2023-02-14T14:25:12.162Z,104.98
2023-02-14T14:26:21.335Z,106.44
2023-02-14T14:27:30.531Z,106.2
2023-02-14T14:28:39.672Z,106.44
2023-02-14T14:29:48.867Z,106.2
2023-02-14T14:30:58.066Z,107.42
2023-02-14T14:32:07.238Z,108.88
2023-02-14T14:33:16.414Z,109.37
2023-02-14T14:34:25.597Z,110.1
2023-02-14T14:35:33.772Z,108.39
2023-02-14T14:36:42.946Z,109.37
2023-02-14T14:37:52.129Z,109.86
2023-02-14T14:39:01.360Z,109.37
2023-02-14T14:40:10.463Z,105.46
2023-02-14T14:41:19.638Z,103.51
2023-02-14T14:42:28.813Z,105.22
2023-02-14T14:43:37.982Z,104.49
2023-02-14T14:44:46.196Z,103.51
2023-02-14T14:45:54.458Z,107.42
2023-02-14T14:47:03.557Z,105.46
2023-02-14T14:48:12.733Z,105.71
2023-02-14T14:49:20.921Z,107.17